sensor_id;sensor_type;location;lat;lon;timestamp;pressure;altitude;pressure_sealevel;temperature;humidity
6393;BME280;3229;42.674;23.282;2023-03-30T00:00:59;95134.22;;;10.85;39.12
6393;BME280;3229;42.674;23.282;2023-03-30T00:03:27;95126.66;;;10.84;39.30
6393;BME280;3229;42.674;23.282;2023-03-30T00:05:55;95124.78;;;10.86;39.30
6393;BME280;3229;42.674;23.282;2023-03-30T00:08:23;95109.78;;;10.71;39.38
6393;BME280;3229;42.674;23.282;2023-03-30T00:10:52;95123.41;;;10.82;39.35
6393;BME280;3229;42.674;23.282;2023-03-30T00:13:20;95126.66;;;10.84;39.36
6393;BME280;3229;42.674;23.282;2023-03-30T00:15:48;95124.09;;;10.84;39.39
6393;BME280;3229;42.674;23.282;2023-03-30T00:18:15;95119.09;;;10.82;39.39
6393;BME280;3229;42.674;23.282;2023-03-30T00:20:43;95121.66;;;10.82;39.56
6393;BME280;3229;42.674;23.282;2023-03-30T00:23:10;95121.66;;;10.82;39.64
6393;BME280;3229;42.674;23.282;2023-03-30T00:25:36;95124.22;;;10.82;39.51
6393;BME280;3229;42.674;23.282;2023-03-30T00:28:03;95122.63;;;10.81;39.67
6393;BME280;3229;42.674;23.282;2023-03-30T00:30:30;95131.09;;;10.82;39.79
6393;BME280;3229;42.674;23.282;2023-03-30T00:32:57;95132.03;;;10.80;39.89
6393;BME280;3229;42.674;23.282;2023-03-30T00:35:25;95124.75;;;10.76;39.92
6393;BME280;3229;42.674;23.282;2023-03-30T00:37:56;95123.88;;;10.66;39.84
6393;BME280;3229;42.674;23.282;2023-03-30T00:40:26;95132.00;;;10.71;39.94
6393;BME280;3229;42.674;23.282;2023-03-30T00:42:57;95143.47;;;10.76;40.16
6393;BME280;3229;42.674;23.282;2023-03-30T00:45:25;95129.97;;;10.74;40.09
6393;BME280;3229;42.674;23.282;2023-03-30T00:47:59;95126.59;;;10.74;40.17
6393;BME280;3229;42.674;23.282;2023-03-30T00:50:30;95127.41;;;10.74;40.21
6393;BME280;3229;42.674;23.282;2023-03-30T00:53:06;95133.63;;;10.72;40.39
6393;BME280;3229;42.674;23.282;2023-03-30T00:55:36;95136.28;;;10.70;40.41
6393;BME280;3229;42.674;23.282;2023-03-30T00:58:05;95132.91;;;10.70;40.51
6393;BME280;3229;42.674;23.282;2023-03-30T01:00:34;95134.66;;;10.69;40.66
6393;BME280;3229;42.674;23.282;2023-03-30T01:03:05;95133.84;;;10.69;40.80
6393;BME280;3229;42.674;23.282;2023-03-30T01:05:34;95129.00;;;10.66;40.93
6393;BME280;3229;42.674;23.282;2023-03-30T01:08:04;95139.22;;;10.66;40.93
6393;BME280;3229;42.674;23.282;2023-03-30T01:10:32;95125.06;;;10.62;41.06
6393;BME280;3229;42.674;23.282;2023-03-30T01:12:59;95128.31;;;10.64;40.97
6393;BME280;3229;42.674;23.282;2023-03-30T01:15:27;95122.66;;;10.60;41.15
6393;BME280;3229;42.674;23.282;2023-03-30T01:18:05;95123.44;;;10.61;41.31
6393;BME280;3229;42.674;23.282;2023-03-30T01:24:17;95121.53;;;10.53;41.45
6393;BME280;3229;42.674;23.282;2023-03-30T01:26:53;95121.41;;;10.54;41.42
6393;BME280;3229;42.674;23.282;2023-03-30T01:29:35;95128.28;;;10.54;41.77
6393;BME280;3229;42.674;23.282;2023-03-30T01:32:29;95127.56;;;10.52;41.73
6393;BME280;3229;42.674;23.282;2023-03-30T01:41:15;95137.53;;;10.45;42.28
6393;BME280;3229;42.674;23.282;2023-03-30T01:43:51;95138.81;;;10.40;42.27
6393;BME280;3229;42.674;23.282;2023-03-30T01:46:25;95146.47;;;10.40;42.42
6393;BME280;3229;42.674;23.282;2023-03-30T01:49:00;95116.34;;;10.22;42.33
6393;BME280;3229;42.674;23.282;2023-03-30T01:51:34;95121.81;;;10.18;42.58
6393;BME280;3229;42.674;23.282;2023-03-30T01:54:08;95145.38;;;10.33;42.72
6393;BME280;3229;42.674;23.282;2023-03-30T01:56:41;95144.81;;;10.29;42.88
6393;BME280;3229;42.674;23.282;2023-03-30T01:59:11;95135.16;;;10.21;43.04
6393;BME280;3229;42.674;23.282;2023-03-30T02:01:42;95143.44;;;10.25;42.90
6393;BME280;3229;42.674;23.282;2023-03-30T02:04:15;95146.91;;;10.24;43.20
6393;BME280;3229;42.674;23.282;2023-03-30T02:06:49;95145.25;;;10.23;43.31
6393;BME280;3229;42.674;23.282;2023-03-30T02:09:20;95155.50;;;10.23;43.47
6393;BME280;3229;42.674;23.282;2023-03-30T02:11:51;95142.16;;;10.19;43.32
6393;BME280;3229;42.674;23.282;2023-03-30T02:14:22;95143.78;;;10.20;43.55
6393;BME280;3229;42.674;23.282;2023-03-30T02:16:54;95148.91;;;10.20;43.52
6393;BME280;3229;42.674;23.282;2023-03-30T02:19:22;95138.72;;;10.09;43.72
6393;BME280;3229;42.674;23.282;2023-03-30T02:21:49;95150.75;;;10.18;43.65
6393;BME280;3229;42.674;23.282;2023-03-30T02:24:18;95150.75;;;10.18;43.67
6393;BME280;3229;42.674;23.282;2023-03-30T02:26:48;95133.50;;;10.11;43.81
6393;BME280;3229;42.674;23.282;2023-03-30T02:29:19;95112.28;;;9.99;43.65
6393;BME280;3229;42.674;23.282;2023-03-30T02:31:48;95149.28;;;10.16;43.74
6393;BME280;3229;42.674;23.282;2023-03-30T02:34:22;95151.94;;;10.14;43.74
6393;BME280;3229;42.674;23.282;2023-03-30T02:37:17;95147.66;;;10.15;43.97
6393;BME280;3229;42.674;23.282;2023-03-30T02:39:56;95148.69;;;10.12;43.79
6393;BME280;3229;42.674;23.282;2023-03-30T02:45:32;95141.88;;;10.01;44.00
6393;BME280;3229;42.674;23.282;2023-03-30T02:48:15;95162.16;;;10.14;44.30
6393;BME280;3229;42.674;23.282;2023-03-30T02:50:50;95157.75;;;10.16;44.46
6393;BME280;3229;42.674;23.282;2023-03-30T02:53:24;95158.56;;;10.17;44.38
6393;BME280;3229;42.674;23.282;2023-03-30T02:56:00;95167.84;;;10.18;44.52
6393;BME280;3229;42.674;23.282;2023-03-30T02:58:32;95159.22;;;10.19;44.65
6393;BME280;3229;42.674;23.282;2023-03-30T03:01:09;95161.09;;;10.17;44.61
6393;BME280;3229;42.674;23.282;2023-03-30T03:03:41;95168.53;;;10.20;44.79
6393;BME280;3229;42.674;23.282;2023-03-30T03:06:10;95168.53;;;10.20;44.87
6393;BME280;3229;42.674;23.282;2023-03-30T03:08:41;95162.63;;;10.19;44.82
6393;BME280;3229;42.674;23.282;2023-03-30T03:11:09;95169.44;;;10.19;44.90
6393;BME280;3229;42.674;23.282;2023-03-30T03:13:36;95172.56;;;10.22;44.97
6393;BME280;3229;42.674;23.282;2023-03-30T03:16:07;95163.16;;;10.23;45.02
6393;BME280;3229;42.674;23.282;2023-03-30T03:18:37;95176.78;;;10.23;45.04
6393;BME280;3229;42.674;23.282;2023-03-30T03:21:05;95153.09;;;10.10;45.39
6393;BME280;3229;42.674;23.282;2023-03-30T03:23:31;95171.66;;;10.23;45.40
6393;BME280;3229;42.674;23.282;2023-03-30T03:25:58;95175.13;;;10.22;45.54
6393;BME280;3229;42.674;23.282;2023-03-30T03:28:25;95176.66;;;10.25;45.59
6393;BME280;3229;42.674;23.282;2023-03-30T03:30:52;95182.59;;;10.25;45.69
6393;BME280;3229;42.674;23.282;2023-03-30T03:33:21;95166.66;;;10.22;45.71
6393;BME280;3229;42.674;23.282;2023-03-30T03:35:47;95175.03;;;10.24;45.69
6393;BME280;3229;42.674;23.282;2023-03-30T03:38:18;95167.34;;;10.24;45.77
6393;BME280;3229;42.674;23.282;2023-03-30T03:40:48;95170.63;;;10.26;45.94
6393;BME280;3229;42.674;23.282;2023-03-30T03:43:16;95175.72;;;10.26;45.91
6393;BME280;3229;42.674;23.282;2023-03-30T03:45:44;95170.97;;;10.21;45.96
6393;BME280;3229;42.674;23.282;2023-03-30T03:48:11;95185.00;;;10.27;45.99
6393;BME280;3229;42.674;23.282;2023-03-30T03:50:39;95184.34;;;10.25;46.11
6393;BME280;3229;42.674;23.282;2023-03-30T03:53:07;95184.19;;;10.26;46.18
6393;BME280;3229;42.674;23.282;2023-03-30T03:55:33;95187.81;;;10.24;46.37
6393;BME280;3229;42.674;23.282;2023-03-30T03:58:00;95192.69;;;10.27;46.34
6393;BME280;3229;42.674;23.282;2023-03-30T04:00:27;95196.88;;;10.28;46.49
6393;BME280;3229;42.674;23.282;2023-03-30T04:02:54;95196.88;;;10.28;46.38
6393;BME280;3229;42.674;23.282;2023-03-30T04:05:21;95195.94;;;10.29;46.52
6393;BME280;3229;42.674;23.282;2023-03-30T04:07:49;95197.56;;;10.30;46.55
6393;BME280;3229;42.674;23.282;2023-03-30T04:10:18;95187.47;;;10.28;46.59
6393;BME280;3229;42.674;23.282;2023-03-30T04:12:45;95192.44;;;10.30;46.61
6393;BME280;3229;42.674;23.282;2023-03-30T04:15:12;95182.69;;;10.24;46.59
6393;BME280;3229;42.674;23.282;2023-03-30T04:17:39;95191.41;;;10.33;46.76
6393;BME280;3229;42.674;23.282;2023-03-30T04:20:07;95184.41;;;10.35;46.45
6393;BME280;3229;42.674;23.282;2023-03-30T04:22:36;95190.22;;;10.37;46.78
6393;BME280;3229;42.674;23.282;2023-03-30T04:25:08;95186.00;;;10.36;46.75
6393;BME280;3229;42.674;23.282;2023-03-30T04:27:35;95187.53;;;10.38;46.73
6393;BME280;3229;42.674;23.282;2023-03-30T04:30:03;95189.94;;;10.40;46.83
6393;BME280;3229;42.674;23.282;2023-03-30T04:32:30;95195.19;;;10.38;46.69
6393;BME280;3229;42.674;23.282;2023-03-30T04:34:59;95194.16;;;10.41;46.83
6393;BME280;3229;42.674;23.282;2023-03-30T04:37:26;95194.16;;;10.41;46.87
6393;BME280;3229;42.674;23.282;2023-03-30T04:39:55;95195.75;;;10.42;46.99
6393;BME280;3229;42.674;23.282;2023-03-30T04:42:24;95195.63;;;10.43;47.17
6393;BME280;3229;42.674;23.282;2023-03-30T04:44:55;95189.84;;;10.41;47.11
6393;BME280;3229;42.674;23.282;2023-03-30T04:47:22;95199.13;;;10.42;47.22
6393;BME280;3229;42.674;23.282;2023-03-30T04:49:49;95203.19;;;10.45;47.09
6393;BME280;3229;42.674;23.282;2023-03-30T04:52:16;95191.22;;;10.45;47.11
6393;BME280;3229;42.674;23.282;2023-03-30T04:54:43;95198.75;;;10.47;47.11
6393;BME280;3229;42.674;23.282;2023-03-30T04:57:10;95190.94;;;10.48;47.13
6393;BME280;3229;42.674;23.282;2023-03-30T04:59:39;95193.25;;;10.51;47.02
6393;BME280;3229;42.674;23.282;2023-03-30T05:02:07;95198.81;;;10.57;47.16
6393;BME280;3229;42.674;23.282;2023-03-30T05:04:34;95199.56;;;10.68;47.75
6393;BME280;3229;42.674;23.282;2023-03-30T05:07:01;95196.66;;;10.83;48.53
6393;BME280;3229;42.674;23.282;2023-03-30T05:09:28;95191.59;;;10.92;49.48
6393;BME280;3229;42.674;23.282;2023-03-30T05:11:55;95198.81;;;11.08;50.30
6393;BME280;3229;42.674;23.282;2023-03-30T05:14:21;95197.94;;;11.19;50.51
6393;BME280;3229;42.674;23.282;2023-03-30T05:16:50;95197.97;;;11.28;50.84
6393;BME280;3229;42.674;23.282;2023-03-30T05:19:17;95193.66;;;11.39;50.67
6393;BME280;3229;42.674;23.282;2023-03-30T05:21:43;95198.81;;;11.48;50.84
6393;BME280;3229;42.674;23.282;2023-03-30T05:24:11;95200.63;;;11.58;50.76
6393;BME280;3229;42.674;23.282;2023-03-30T05:26:38;95197.38;;;11.65;51.15
6393;BME280;3229;42.674;23.282;2023-03-30T05:29:05;95194.56;;;11.68;52.29
6393;BME280;3229;42.674;23.282;2023-03-30T05:31:32;95198.72;;;11.69;53.79
6393;BME280;3229;42.674;23.282;2023-03-30T05:34:00;95195.25;;;11.70;54.03
6393;BME280;3229;42.674;23.282;2023-03-30T05:36:27;95192.41;;;11.73;54.10
6393;BME280;3229;42.674;23.282;2023-03-30T05:38:53;95195.38;;;11.78;53.94
6393;BME280;3229;42.674;23.282;2023-03-30T05:41:20;95196.06;;;11.80;53.20
6393;BME280;3229;42.674;23.282;2023-03-30T05:43:47;95191.53;;;11.84;52.62
6393;BME280;3229;42.674;23.282;2023-03-30T05:46:14;95199.34;;;11.92;52.54
6393;BME280;3229;42.674;23.282;2023-03-30T05:48:41;95205.84;;;11.96;52.15
6393;BME280;3229;42.674;23.282;2023-03-30T05:51:09;95202.31;;;11.97;51.77
6393;BME280;3229;42.674;23.282;2023-03-30T05:53:35;95198.00;;;11.98;51.41
6393;BME280;3229;42.674;23.282;2023-03-30T05:56:03;95202.19;;;11.99;51.14
6393;BME280;3229;42.674;23.282;2023-03-30T05:58:31;95206.78;;;12.05;51.10
6393;BME280;3229;42.674;23.282;2023-03-30T06:00:58;95182.34;;;11.91;50.70
6393;BME280;3229;42.674;23.282;2023-03-30T06:03:25;95208.00;;;12.11;50.73
6393;BME280;3229;42.674;23.282;2023-03-30T06:05:52;95212.19;;;12.12;50.26
6393;BME280;3229;42.674;23.282;2023-03-30T06:08:20;95208.81;;;12.11;50.12
6393;BME280;3229;42.674;23.282;2023-03-30T06:10:51;95222.47;;;12.31;64.02
6393;BME280;3229;42.674;23.282;2023-03-30T06:13:18;95230.78;;;12.72;62.58
6393;BME280;3229;42.674;23.282;2023-03-30T06:15:45;95230.50;;;12.85;59.29
6393;BME280;3229;42.674;23.282;2023-03-30T06:18:12;95236.56;;;12.93;57.95
6393;BME280;3229;42.674;23.282;2023-03-30T06:20:39;95237.34;;;12.94;57.49
6393;BME280;3229;42.674;23.282;2023-03-30T06:23:05;95234.13;;;12.92;56.58
6393;BME280;3229;42.674;23.282;2023-03-30T06:25:34;95237.78;;;12.89;56.13
6393;BME280;3229;42.674;23.282;2023-03-30T06:28:01;95248.59;;;12.83;55.56
6393;BME280;3229;42.674;23.282;2023-03-30T06:30:28;95248.47;;;12.75;55.37
6393;BME280;3229;42.674;23.282;2023-03-30T06:32:55;95237.53;;;12.63;54.59
6393;BME280;3229;42.674;23.282;2023-03-30T06:35:22;95235.81;;;12.54;54.28
6393;BME280;3229;42.674;23.282;2023-03-30T06:37:49;95248.88;;;12.61;54.18
6393;BME280;3229;42.674;23.282;2023-03-30T06:40:16;95250.94;;;12.57;53.81
6393;BME280;3229;42.674;23.282;2023-03-30T06:42:44;95245.00;;;12.57;53.66
6393;BME280;3229;42.674;23.282;2023-03-30T06:45:12;95248.22;;;12.59;53.31
6393;BME280;3229;42.674;23.282;2023-03-30T06:47:39;95248.88;;;12.61;53.19
6393;BME280;3229;42.674;23.282;2023-03-30T06:50:07;95255.91;;;12.68;52.64
6393;BME280;3229;42.674;23.282;2023-03-30T06:52:34;95257.13;;;12.74;52.39
6393;BME280;3229;42.674;23.282;2023-03-30T06:55:01;95224.88;;;12.62;52.04
6393;BME280;3229;42.674;23.282;2023-03-30T06:57:28;95261.44;;;12.83;51.96
6393;BME280;3229;42.674;23.282;2023-03-30T06:59:56;95252.63;;;12.86;51.60
6393;BME280;3229;42.674;23.282;2023-03-30T07:02:23;95243.72;;;12.90;51.27
6393;BME280;3229;42.674;23.282;2023-03-30T07:04:51;95251.38;;;13.09;51.03
6393;BME280;3229;42.674;23.282;2023-03-30T07:07:18;95249.34;;;13.22;50.78
6393;BME280;3229;42.674;23.282;2023-03-30T07:09:45;95253.38;;;13.35;50.56
6393;BME280;3229;42.674;23.282;2023-03-30T07:12:12;95194.47;;;13.23;50.10
6393;BME280;3229;42.674;23.282;2023-03-30T07:14:38;95252.19;;;13.84;49.75
6393;BME280;3229;42.674;23.282;2023-03-30T07:17:07;95257.38;;;14.02;49.37
6393;BME280;3229;42.674;23.282;2023-03-30T07:19:33;95262.69;;;14.18;48.95
6393;BME280;3229;42.674;23.282;2023-03-30T07:22:00;95263.66;;;14.35;48.89
6393;BME280;3229;42.674;23.282;2023-03-30T07:24:28;95272.50;;;14.50;48.55
6393;BME280;3229;42.674;23.282;2023-03-30T07:26:55;95258.09;;;14.58;48.39
6393;BME280;3229;42.674;23.282;2023-03-30T07:29:22;95266.59;;;14.76;48.28
6393;BME280;3229;42.674;23.282;2023-03-30T07:31:49;95273.66;;;14.92;48.12
6393;BME280;3229;42.674;23.282;2023-03-30T07:34:17;95279.72;;;15.09;47.65
6393;BME280;3229;42.674;23.282;2023-03-30T07:36:44;95267.59;;;15.27;47.49
6393;BME280;3229;42.674;23.282;2023-03-30T07:39:12;95260.59;;;15.45;47.31
6393;BME280;3229;42.674;23.282;2023-03-30T07:41:38;95252.81;;;15.63;47.07
6393;BME280;3229;42.674;23.282;2023-03-30T07:44:05;95261.94;;;15.84;47.09
6393;BME280;3229;42.674;23.282;2023-03-30T07:46:32;95251.03;;;16.06;46.58
6393;BME280;3229;42.674;23.282;2023-03-30T07:48:59;95263.38;;;16.37;46.60
6393;BME280;3229;42.674;23.282;2023-03-30T07:51:27;95257.72;;;16.66;46.50
6393;BME280;3229;42.674;23.282;2023-03-30T07:53:54;95255.81;;;16.92;46.13
6393;BME280;3229;42.674;23.282;2023-03-30T07:56:21;95257.75;;;17.15;45.99
6393;BME280;3229;42.674;23.282;2023-03-30T07:58:47;95259.97;;;17.34;45.84
6393;BME280;3229;42.674;23.282;2023-03-30T08:01:14;95257.84;;;17.46;45.62
6393;BME280;3229;42.674;23.282;2023-03-30T08:03:42;95268.59;;;17.66;45.41
6393;BME280;3229;42.674;23.282;2023-03-30T08:06:10;95264.84;;;17.85;45.37
6393;BME280;3229;42.674;23.282;2023-03-30T08:08:39;95239.69;;;18.01;48.55
6393;BME280;3229;42.674;23.282;2023-03-30T08:11:08;95233.38;;;18.35;49.10
6393;BME280;3229;42.674;23.282;2023-03-30T08:13:35;95253.00;;;18.75;48.31
6393;BME280;3229;42.674;23.282;2023-03-30T08:16:03;95260.94;;;18.97;47.60
6393;BME280;3229;42.674;23.282;2023-03-30T08:18:30;95245.66;;;19.02;47.05
6393;BME280;3229;42.674;23.282;2023-03-30T08:20:57;95244.63;;;19.26;46.70
6393;BME280;3229;42.674;23.282;2023-03-30T08:23:24;95246.06;;;19.43;46.09
6393;BME280;3229;42.674;23.282;2023-03-30T08:25:55;95250.63;;;19.56;45.78
6393;BME280;3229;42.674;23.282;2023-03-30T08:28:22;95248.78;;;19.65;45.46
6393;BME280;3229;42.674;23.282;2023-03-30T08:30:49;95250.44;;;19.72;45.08
6393;BME280;3229;42.674;23.282;2023-03-30T08:33:16;95255.94;;;19.77;44.82
6393;BME280;3229;42.674;23.282;2023-03-30T08:35:43;95243.56;;;19.79;44.80
6393;BME280;3229;42.674;23.282;2023-03-30T08:38:10;95247.84;;;19.87;44.46
6393;BME280;3229;42.674;23.282;2023-03-30T08:40:42;95244.97;;;19.97;44.17
6393;BME280;3229;42.674;23.282;2023-03-30T08:43:24;95242.72;;;20.09;43.97
6393;BME280;3229;42.674;23.282;2023-03-30T08:45:58;95249.41;;;20.18;43.65
6393;BME280;3229;42.674;23.282;2023-03-30T08:48:28;95247.31;;;20.28;43.59
6393;BME280;3229;42.674;23.282;2023-03-30T08:50:58;95246.03;;;20.39;43.28
6393;BME280;3229;42.674;23.282;2023-03-30T08:53:28;95233.88;;;20.46;43.11
6393;BME280;3229;42.674;23.282;2023-03-30T08:56:01;95242.22;;;20.56;42.91
6393;BME280;3229;42.674;23.282;2023-03-30T08:58:38;95235.22;;;20.57;42.64
6393;BME280;3229;42.674;23.282;2023-03-30T09:01:15;95237.19;;;20.54;42.68
6393;BME280;3229;42.674;23.282;2023-03-30T09:03:53;95216.09;;;20.43;42.61
6393;BME280;3229;42.674;23.282;2023-03-30T09:06:29;95239.00;;;20.54;42.56
6393;BME280;3229;42.674;23.282;2023-03-30T09:09:03;95228.44;;;20.56;42.57
6393;BME280;3229;42.674;23.282;2023-03-30T09:11:33;95223.47;;;20.61;42.59
6393;BME280;3229;42.674;23.282;2023-03-30T09:14:04;95221.56;;;20.69;42.28
6393;BME280;3229;42.674;23.282;2023-03-30T09:16:36;95220.84;;;20.82;42.16
6393;BME280;3229;42.674;23.282;2023-03-30T09:19:08;95221.75;;;20.96;41.88
6393;BME280;3229;42.674;23.282;2023-03-30T09:21:39;95213.47;;;21.14;41.54
6393;BME280;3229;42.674;23.282;2023-03-30T09:24:11;95213.06;;;21.38;41.01
6393;BME280;3229;42.674;23.282;2023-03-30T09:26:44;95204.97;;;21.61;40.64
6393;BME280;3229;42.674;23.282;2023-03-30T09:29:18;95203.41;;;21.73;40.54
6393;BME280;3229;42.674;23.282;2023-03-30T09:31:48;95202.63;;;21.73;40.27
6393;BME280;3229;42.674;23.282;2023-03-30T09:34:23;95195.97;;;21.64;40.41
6393;BME280;3229;42.674;23.282;2023-03-30T09:36:55;95200.72;;;21.53;40.37
6393;BME280;3229;42.674;23.282;2023-03-30T09:39:24;95194.66;;;21.40;40.34
6393;BME280;3229;42.674;23.282;2023-03-30T09:41:58;95197.22;;;21.33;40.07
6393;BME280;3229;42.674;23.282;2023-03-30T09:44:34;95184.13;;;21.26;39.90
6393;BME280;3229;42.674;23.282;2023-03-30T09:47:06;95177.28;;;21.19;39.73
6393;BME280;3229;42.674;23.282;2023-03-30T09:49:37;95189.78;;;21.30;39.69
6393;BME280;3229;42.674;23.282;2023-03-30T09:52:06;95186.81;;;21.33;39.43
6393;BME280;3229;42.674;23.282;2023-03-30T09:54:35;95188.66;;;21.39;39.31
6393;BME280;3229;42.674;23.282;2023-03-30T09:57:03;95184.88;;;21.48;39.15
6393;BME280;3229;42.674;23.282;2023-03-30T09:59:32;95193.75;;;21.61;39.04
6393;BME280;3229;42.674;23.282;2023-03-30T10:02:16;95186.59;;;21.69;38.86
6393;BME280;3229;42.674;23.282;2023-03-30T10:05:01;95172.34;;;21.65;38.71
6393;BME280;3229;42.674;23.282;2023-03-30T10:07:34;95180.19;;;21.72;38.96
6393;BME280;3229;42.674;23.282;2023-03-30T10:10:13;95183.97;;;21.69;38.86
6393;BME280;3229;42.674;23.282;2023-03-30T10:12:40;95178.16;;;21.67;38.63
6393;BME280;3229;42.674;23.282;2023-03-30T10:15:14;95175.34;;;21.62;38.66
6393;BME280;3229;42.674;23.282;2023-03-30T10:17:44;95163.31;;;21.61;38.47
6393;BME280;3229;42.674;23.282;2023-03-30T10:20:32;95164.38;;;21.73;38.32
6393;BME280;3229;42.674;23.282;2023-03-30T10:23:03;95174.84;;;21.93;38.22
6393;BME280;3229;42.674;23.282;2023-03-30T10:25:32;95168.44;;;21.96;38.14
6393;BME280;3229;42.674;23.282;2023-03-30T10:28:00;95157.44;;;21.94;38.24
6393;BME280;3229;42.674;23.282;2023-03-30T10:30:30;95159.78;;;21.89;38.42
6393;BME280;3229;42.674;23.282;2023-03-30T10:33:00;95155.00;;;21.86;38.49
6393;BME280;3229;42.674;23.282;2023-03-30T10:35:33;95139.31;;;21.66;38.04
6393;BME280;3229;42.674;23.282;2023-03-30T10:38:03;95152.16;;;21.74;37.99
6393;BME280;3229;42.674;23.282;2023-03-30T10:40:33;95149.94;;;21.71;38.19
6393;BME280;3229;42.674;23.282;2023-03-30T10:43:02;95152.13;;;21.67;37.96
6393;BME280;3229;42.674;23.282;2023-03-30T10:45:36;95151.31;;;21.67;37.77
6393;BME280;3229;42.674;23.282;2023-03-30T10:48:26;95145.13;;;21.68;37.69
6393;BME280;3229;42.674;23.282;2023-03-30T10:51:04;95130.91;;;21.64;37.33
6393;BME280;3229;42.674;23.282;2023-03-30T10:53:40;95138.72;;;21.70;37.61
6393;BME280;3229;42.674;23.282;2023-03-30T10:56:21;95141.31;;;21.70;37.47
6393;BME280;3229;42.674;23.282;2023-03-30T11:02:09;95129.91;;;21.71;37.45
6393;BME280;3229;42.674;23.282;2023-03-30T11:04:46;95129.91;;;21.71;37.60
6393;BME280;3229;42.674;23.282;2023-03-30T11:07:19;95120.31;;;21.72;37.46
6393;BME280;3229;42.674;23.282;2023-03-30T11:09:53;95115.09;;;21.78;37.45
6393;BME280;3229;42.674;23.282;2023-03-30T11:12:21;95108.91;;;21.93;37.20
6393;BME280;3229;42.674;23.282;2023-03-30T11:14:55;95099.53;;;21.98;36.87
6393;BME280;3229;42.674;23.282;2023-03-30T11:17:28;95103.34;;;22.02;37.08
6393;BME280;3229;42.674;23.282;2023-03-30T11:20:15;95096.94;;;21.98;37.36
6393;BME280;3229;42.674;23.282;2023-03-30T11:22:47;95093.91;;;21.95;36.99
6393;BME280;3229;42.674;23.282;2023-03-30T11:25:19;95093.50;;;21.91;37.05
6393;BME280;3229;42.674;23.282;2023-03-30T11:27:52;95096.50;;;21.88;37.01
6393;BME280;3229;42.674;23.282;2023-03-30T11:30:24;95088.47;;;21.83;37.03
6393;BME280;3229;42.674;23.282;2023-03-30T11:32:56;95089.06;;;21.78;37.00
6393;BME280;3229;42.674;23.282;2023-03-30T11:35:30;95076.84;;;21.72;37.02
6393;BME280;3229;42.674;23.282;2023-03-30T11:38:06;95069.00;;;21.66;37.05
6393;BME280;3229;42.674;23.282;2023-03-30T11:40:40;95067.22;;;21.60;37.07
6393;BME280;3229;42.674;23.282;2023-03-30T11:43:09;95067.41;;;21.65;36.96
6393;BME280;3229;42.674;23.282;2023-03-30T11:45:45;95052.19;;;21.62;36.74
6393;BME280;3229;42.674;23.282;2023-03-30T11:48:32;95054.03;;;21.68;36.54
6393;BME280;3229;42.674;23.282;2023-03-30T11:51:14;95060.19;;;21.60;36.73
6393;BME280;3229;42.674;23.282;2023-03-30T11:53:51;95060.19;;;21.53;36.83
6393;BME280;3229;42.674;23.282;2023-03-30T11:56:27;95029.72;;;21.34;36.94
6393;BME280;3229;42.674;23.282;2023-03-30T11:59:02;95042.72;;;21.41;37.57
6393;BME280;3229;42.674;23.282;2023-03-30T12:01:44;95046.13;;;21.35;37.83
6393;BME280;3229;42.674;23.282;2023-03-30T12:04:23;95051.03;;;21.23;38.02
6393;BME280;3229;42.674;23.282;2023-03-30T12:06:55;95039.00;;;21.09;38.17
6393;BME280;3229;42.674;23.282;2023-03-30T12:09:24;95039.78;;;21.09;37.94
6393;BME280;3229;42.674;23.282;2023-03-30T12:11:56;95040.59;;;21.10;37.83
6393;BME280;3229;42.674;23.282;2023-03-30T12:14:57;95030.78;;;21.05;37.85
6393;BME280;3229;42.674;23.282;2023-03-30T12:17:33;95024.16;;;21.02;37.67
6393;BME280;3229;42.674;23.282;2023-03-30T12:20:09;95012.34;;;21.00;37.66
6393;BME280;3229;42.674;23.282;2023-03-30T12:22:43;95008.31;;;20.97;37.59
6393;BME280;3229;42.674;23.282;2023-03-30T12:25:17;95009.53;;;20.95;37.47
6393;BME280;3229;42.674;23.282;2023-03-30T12:27:58;95007.91;;;20.94;37.48
6393;BME280;3229;42.674;23.282;2023-03-30T12:30:29;94997.91;;;20.91;37.22
6393;BME280;3229;42.674;23.282;2023-03-30T12:32:59;94971.03;;;20.70;37.48
6393;BME280;3229;42.674;23.282;2023-03-30T12:35:52;94997.28;;;20.82;37.31
6393;BME280;3229;42.674;23.282;2023-03-30T12:38:21;94988.78;;;20.67;37.41
6393;BME280;3229;42.674;23.282;2023-03-30T12:41:09;94967.72;;;20.48;37.30
6393;BME280;3229;42.674;23.282;2023-03-30T12:44:18;94975.75;;;20.53;37.42
6393;BME280;3229;42.674;23.282;2023-03-30T12:47:03;94970.25;;;20.42;37.45
6393;BME280;3229;42.674;23.282;2023-03-30T12:49:49;94964.00;;;20.29;37.54
6393;BME280;3229;42.674;23.282;2023-03-30T12:52:27;94964.75;;;20.23;37.54
6393;BME280;3229;42.674;23.282;2023-03-30T12:55:11;94964.09;;;20.15;37.41
6393;BME280;3229;42.674;23.282;2023-03-30T12:58:01;94955.84;;;20.04;37.43
6393;BME280;3229;42.674;23.282;2023-03-30T13:00:43;94957.56;;;19.91;37.58
6393;BME280;3229;42.674;23.282;2023-03-30T13:03:35;94909.69;;;19.50;37.64
6393;BME280;3229;42.674;23.282;2023-03-30T13:06:05;94950.59;;;19.70;37.73
6393;BME280;3229;42.674;23.282;2023-03-30T13:08:38;94936.75;;;19.63;37.84
6393;BME280;3229;42.674;23.282;2023-03-30T13:11:09;94937.50;;;19.57;37.88
6393;BME280;3229;42.674;23.282;2023-03-30T13:13:49;94936.25;;;19.52;37.78
6393;BME280;3229;42.674;23.282;2023-03-30T13:16:47;94925.66;;;19.47;37.88
6393;BME280;3229;42.674;23.282;2023-03-30T13:19:46;94919.03;;;19.45;37.96
6393;BME280;3229;42.674;23.282;2023-03-30T13:22:23;94906.75;;;19.32;38.10
6393;BME280;3229;42.674;23.282;2023-03-30T13:24:58;94915.41;;;19.39;37.86
6393;BME280;3229;42.674;23.282;2023-03-30T13:27:28;94911.03;;;19.46;37.74
6393;BME280;3229;42.674;23.282;2023-03-30T13:29:58;94912.28;;;19.50;37.64
6393;BME280;3229;42.674;23.282;2023-03-30T13:35:34;94896.69;;;19.44;37.54
6393;BME280;3229;42.674;23.282;2023-03-30T13:38:24;94892.84;;;19.40;37.71
6393;BME280;3229;42.674;23.282;2023-03-30T13:41:03;94876.97;;;19.28;37.72
6393;BME280;3229;42.674;23.282;2023-03-30T13:43:55;94887.34;;;19.28;37.91
6393;BME280;3229;42.674;23.282;2023-03-30T13:46:28;94884.56;;;19.29;37.68
6393;BME280;3229;42.674;23.282;2023-03-30T13:49:09;94883.16;;;19.27;37.72
6393;BME280;3229;42.674;23.282;2023-03-30T13:51:40;94885.53;;;19.22;37.73